sensor_id;sensor_type;location;lat;lon;timestamp;P1;durP1;ratioP1;P2;durP2;ratioP2
7162;SDS011;3623;47.098;15.446;2022-10-16T00:01:07;69.10;;;45.95;;
7162;SDS011;3623;47.098;15.446;2022-10-16T00:03:36;73.82;;;47.38;;
7162;SDS011;3623;47.098;15.446;2022-10-16T00:06:04;78.07;;;44.85;;
7162;SDS011;3623;47.098;15.446;2022-10-16T00:08:34;75.78;;;47.45;;
7162;SDS011;3623;47.098;15.446;2022-10-16T00:11:02;80.40;;;48.17;;
7162;SDS011;3623;47.098;15.446;2022-10-16T00:13:32;77.28;;;49.40;;
7162;SDS011;3623;47.098;15.446;2022-10-16T00:16:01;75.65;;;45.55;;
7162;SDS011;3623;47.098;15.446;2022-10-16T00:18:29;69.97;;;45.55;;
7162;SDS011;3623;47.098;15.446;2022-10-16T00:21:01;72.85;;;46.83;;
7162;SDS011;3623;47.098;15.446;2022-10-16T00:23:29;75.35;;;45.17;;
7162;SDS011;3623;47.098;15.446;2022-10-16T00:25:58;73.93;;;43.95;;
7162;SDS011;3623;47.098;15.446;2022-10-16T00:28:28;75.72;;;46.85;;
7162;SDS011;3623;47.098;15.446;2022-10-16T00:30:56;76.00;;;48.90;;
7162;SDS011;3623;47.098;15.446;2022-10-16T00:33:23;70.05;;;43.92;;
7162;SDS011;3623;47.098;15.446;2022-10-16T00:35:50;73.00;;;44.00;;
7162;SDS011;3623;47.098;15.446;2022-10-16T00:38:17;66.65;;;43.90;;
7162;SDS011;3623;47.098;15.446;2022-10-16T00:40:45;59.15;;;41.00;;
7162;SDS011;3623;47.098;15.446;2022-10-16T00:43:14;65.47;;;42.40;;
7162;SDS011;3623;47.098;15.446;2022-10-16T00:45:56;68.45;;;44.35;;
7162;SDS011;3623;47.098;15.446;2022-10-16T00:48:23;64.00;;;40.10;;
7162;SDS011;3623;47.098;15.446;2022-10-16T00:50:50;55.05;;;38.25;;
7162;SDS011;3623;47.098;15.446;2022-10-16T00:53:18;63.08;;;42.08;;
7162;SDS011;3623;47.098;15.446;2022-10-16T00:55:46;59.70;;;40.05;;
7162;SDS011;3623;47.098;15.446;2022-10-16T00:58:14;61.83;;;42.50;;
7162;SDS011;3623;47.098;15.446;2022-10-16T01:00:42;60.20;;;40.38;;
7162;SDS011;3623;47.098;15.446;2022-10-16T01:03:22;58.90;;;38.63;;
7162;SDS011;3623;47.098;15.446;2022-10-16T01:05:53;57.67;;;39.63;;
7162;SDS011;3623;47.098;15.446;2022-10-16T01:08:29;62.40;;;40.35;;
7162;SDS011;3623;47.098;15.446;2022-10-16T01:11:07;60.42;;;39.97;;
7162;SDS011;3623;47.098;15.446;2022-10-16T01:13:42;57.08;;;38.25;;
7162;SDS011;3623;47.098;15.446;2022-10-16T01:16:15;56.70;;;37.10;;
7162;SDS011;3623;47.098;15.446;2022-10-16T01:18:47;50.13;;;35.90;;
7162;SDS011;3623;47.098;15.446;2022-10-16T01:21:21;56.10;;;38.60;;
7162;SDS011;3623;47.098;15.446;2022-10-16T01:23:56;64.88;;;40.38;;
7162;SDS011;3623;47.098;15.446;2022-10-16T01:26:36;68.28;;;39.22;;
7162;SDS011;3623;47.098;15.446;2022-10-16T01:29:20;57.55;;;39.08;;
7162;SDS011;3623;47.098;15.446;2022-10-16T01:31:53;61.97;;;37.65;;
7162;SDS011;3623;47.098;15.446;2022-10-16T01:34:25;58.88;;;38.15;;
7162;SDS011;3623;47.098;15.446;2022-10-16T01:37:00;56.25;;;37.28;;
7162;SDS011;3623;47.098;15.446;2022-10-16T01:39:32;59.42;;;39.63;;
7162;SDS011;3623;47.098;15.446;2022-10-16T01:42:04;55.47;;;37.47;;
7162;SDS011;3623;47.098;15.446;2022-10-16T01:44:37;61.38;;;38.60;;
7162;SDS011;3623;47.098;15.446;2022-10-16T01:47:06;59.30;;;39.97;;
7162;SDS011;3623;47.098;15.446;2022-10-16T01:49:36;64.63;;;40.00;;
7162;SDS011;3623;47.098;15.446;2022-10-16T01:52:07;61.38;;;40.05;;
7162;SDS011;3623;47.098;15.446;2022-10-16T01:54:37;53.75;;;36.72;;
7162;SDS011;3623;47.098;15.446;2022-10-16T01:57:10;56.15;;;36.08;;
7162;SDS011;3623;47.098;15.446;2022-10-16T01:59:42;50.13;;;36.70;;
7162;SDS011;3623;47.098;15.446;2022-10-16T02:02:13;50.03;;;36.97;;
7162;SDS011;3623;47.098;15.446;2022-10-16T02:04:43;52.83;;;36.60;;
7162;SDS011;3623;47.098;15.446;2022-10-16T02:07:13;53.10;;;36.22;;
7162;SDS011;3623;47.098;15.446;2022-10-16T02:09:40;53.28;;;36.55;;
7162;SDS011;3623;47.098;15.446;2022-10-16T02:12:08;44.38;;;32.33;;
7162;SDS011;3623;47.098;15.446;2022-10-16T02:14:43;56.90;;;35.88;;
7162;SDS011;3623;47.098;15.446;2022-10-16T02:17:10;50.50;;;32.63;;
7162;SDS011;3623;47.098;15.446;2022-10-16T02:19:39;53.03;;;35.40;;
7162;SDS011;3623;47.098;15.446;2022-10-16T02:22:08;48.92;;;33.70;;
7162;SDS011;3623;47.098;15.446;2022-10-16T02:24:43;46.88;;;32.72;;
7162;SDS011;3623;47.098;15.446;2022-10-16T02:27:17;45.58;;;34.40;;
7162;SDS011;3623;47.098;15.446;2022-10-16T02:29:53;45.13;;;34.35;;
7162;SDS011;3623;47.098;15.446;2022-10-16T02:32:28;54.05;;;36.33;;
7162;SDS011;3623;47.098;15.446;2022-10-16T02:34:58;49.10;;;33.88;;
7162;SDS011;3623;47.098;15.446;2022-10-16T02:37:26;57.03;;;37.20;;
7162;SDS011;3623;47.098;15.446;2022-10-16T02:39:55;61.05;;;36.95;;
7162;SDS011;3623;47.098;15.446;2022-10-16T02:42:27;47.15;;;32.45;;
7162;SDS011;3623;47.098;15.446;2022-10-16T02:44:57;51.80;;;37.65;;
7162;SDS011;3623;47.098;15.446;2022-10-16T02:47:24;44.55;;;32.05;;
7162;SDS011;3623;47.098;15.446;2022-10-16T02:49:51;49.83;;;35.72;;
7162;SDS011;3623;47.098;15.446;2022-10-16T02:52:19;55.97;;;37.10;;
7162;SDS011;3623;47.098;15.446;2022-10-16T02:54:46;67.05;;;45.05;;
7162;SDS011;3623;47.098;15.446;2022-10-16T02:57:13;61.10;;;43.92;;
7162;SDS011;3623;47.098;15.446;2022-10-16T02:59:40;55.28;;;40.80;;
7162;SDS011;3623;47.098;15.446;2022-10-16T03:02:09;55.22;;;38.53;;
7162;SDS011;3623;47.098;15.446;2022-10-16T03:04:36;60.72;;;43.45;;
7162;SDS011;3623;47.098;15.446;2022-10-16T03:07:03;57.13;;;40.40;;
7162;SDS011;3623;47.098;15.446;2022-10-16T03:09:30;68.95;;;40.85;;
7162;SDS011;3623;47.098;15.446;2022-10-16T03:11:57;59.53;;;37.33;;
7162;SDS011;3623;47.098;15.446;2022-10-16T03:14:25;54.03;;;38.15;;
7162;SDS011;3623;47.098;15.446;2022-10-16T03:16:52;55.10;;;38.70;;
7162;SDS011;3623;47.098;15.446;2022-10-16T03:19:20;68.80;;;37.30;;
7162;SDS011;3623;47.098;15.446;2022-10-16T03:21:47;51.22;;;35.60;;
7162;SDS011;3623;47.098;15.446;2022-10-16T03:24:15;52.05;;;34.40;;
7162;SDS011;3623;47.098;15.446;2022-10-16T03:26:42;54.17;;;35.15;;
7162;SDS011;3623;47.098;15.446;2022-10-16T03:29:09;51.22;;;33.00;;
7162;SDS011;3623;47.098;15.446;2022-10-16T03:31:36;58.47;;;34.85;;
7162;SDS011;3623;47.098;15.446;2022-10-16T03:34:03;50.58;;;33.83;;
7162;SDS011;3623;47.098;15.446;2022-10-16T03:36:32;61.45;;;36.13;;
7162;SDS011;3623;47.098;15.446;2022-10-16T03:38:59;59.22;;;32.70;;
7162;SDS011;3623;47.098;15.446;2022-10-16T03:41:26;63.50;;;35.63;;
7162;SDS011;3623;47.098;15.446;2022-10-16T03:43:53;58.33;;;36.65;;
7162;SDS011;3623;47.098;15.446;2022-10-16T03:46:20;58.95;;;34.63;;
7162;SDS011;3623;47.098;15.446;2022-10-16T03:48:47;50.13;;;34.05;;
7162;SDS011;3623;47.098;15.446;2022-10-16T03:51:14;55.90;;;35.92;;
7162;SDS011;3623;47.098;15.446;2022-10-16T03:53:43;54.08;;;35.05;;
7162;SDS011;3623;47.098;15.446;2022-10-16T03:56:10;52.17;;;35.33;;
7162;SDS011;3623;47.098;15.446;2022-10-16T03:58:37;54.97;;;37.78;;
7162;SDS011;3623;47.098;15.446;2022-10-16T04:01:04;52.15;;;33.78;;
7162;SDS011;3623;47.098;15.446;2022-10-16T04:03:31;53.10;;;32.58;;
7162;SDS011;3623;47.098;15.446;2022-10-16T04:05:58;51.45;;;34.17;;
7162;SDS011;3623;47.098;15.446;2022-10-16T04:08:25;51.83;;;33.63;;
7162;SDS011;3623;47.098;15.446;2022-10-16T04:10:54;54.55;;;33.47;;
7162;SDS011;3623;47.098;15.446;2022-10-16T04:13:21;43.25;;;31.80;;
7162;SDS011;3623;47.098;15.446;2022-10-16T04:15:48;46.63;;;32.15;;
7162;SDS011;3623;47.098;15.446;2022-10-16T04:18:15;47.65;;;31.23;;
7162;SDS011;3623;47.098;15.446;2022-10-16T04:20:42;46.83;;;29.55;;
7162;SDS011;3623;47.098;15.446;2022-10-16T04:23:09;40.67;;;29.27;;
7162;SDS011;3623;47.098;15.446;2022-10-16T04:25:36;43.30;;;29.98;;
7162;SDS011;3623;47.098;15.446;2022-10-16T04:28:05;42.50;;;30.67;;
7162;SDS011;3623;47.098;15.446;2022-10-16T04:30:32;42.95;;;29.38;;
7162;SDS011;3623;47.098;15.446;2022-10-16T04:32:59;41.15;;;28.77;;
7162;SDS011;3623;47.098;15.446;2022-10-16T04:35:26;41.80;;;29.42;;
7162;SDS011;3623;47.098;15.446;2022-10-16T04:37:54;39.85;;;27.85;;
7162;SDS011;3623;47.098;15.446;2022-10-16T04:40:24;42.58;;;28.40;;
7162;SDS011;3623;47.098;15.446;2022-10-16T04:42:51;39.80;;;27.52;;
7162;SDS011;3623;47.098;15.446;2022-10-16T04:45:19;44.60;;;28.85;;
7162;SDS011;3623;47.098;15.446;2022-10-16T04:47:46;39.22;;;28.63;;
7162;SDS011;3623;47.098;15.446;2022-10-16T04:50:15;40.83;;;28.88;;
7162;SDS011;3623;47.098;15.446;2022-10-16T04:52:42;39.53;;;28.00;;
7162;SDS011;3623;47.098;15.446;2022-10-16T04:55:09;38.55;;;27.63;;
7162;SDS011;3623;47.098;15.446;2022-10-16T04:57:36;45.30;;;29.05;;
7162;SDS011;3623;47.098;15.446;2022-10-16T05:00:04;39.38;;;27.55;;
7162;SDS011;3623;47.098;15.446;2022-10-16T05:02:34;42.28;;;27.15;;
7162;SDS011;3623;47.098;15.446;2022-10-16T05:05:01;41.38;;;28.30;;
7162;SDS011;3623;47.098;15.446;2022-10-16T05:07:29;41.03;;;29.60;;
7162;SDS011;3623;47.098;15.446;2022-10-16T05:09:56;39.50;;;27.55;;
7162;SDS011;3623;47.098;15.446;2022-10-16T05:12:23;33.70;;;28.08;;
7162;SDS011;3623;47.098;15.446;2022-10-16T05:14:50;40.85;;;27.33;;
7162;SDS011;3623;47.098;15.446;2022-10-16T05:17:17;36.85;;;25.35;;
7162;SDS011;3623;47.098;15.446;2022-10-16T05:19:46;35.55;;;27.70;;
7162;SDS011;3623;47.098;15.446;2022-10-16T05:22:13;37.15;;;27.67;;
7162;SDS011;3623;47.098;15.446;2022-10-16T05:24:40;38.38;;;27.90;;
7162;SDS011;3623;47.098;15.446;2022-10-16T05:27:07;40.45;;;27.73;;
7162;SDS011;3623;47.098;15.446;2022-10-16T05:29:34;39.45;;;27.10;;
7162;SDS011;3623;47.098;15.446;2022-10-16T05:32:01;39.90;;;25.35;;
7162;SDS011;3623;47.098;15.446;2022-10-16T05:34:28;36.95;;;26.85;;
7162;SDS011;3623;47.098;15.446;2022-10-16T05:36:57;34.40;;;25.52;;
7162;SDS011;3623;47.098;15.446;2022-10-16T05:39:24;38.03;;;26.85;;
7162;SDS011;3623;47.098;15.446;2022-10-16T05:41:51;39.63;;;26.13;;
7162;SDS011;3623;47.098;15.446;2022-10-16T05:44:18;37.70;;;28.52;;
7162;SDS011;3623;47.098;15.446;2022-10-16T05:46:45;32.40;;;24.73;;
7162;SDS011;3623;47.098;15.446;2022-10-16T05:49:12;33.03;;;26.77;;
7162;SDS011;3623;47.098;15.446;2022-10-16T05:51:40;38.60;;;28.85;;
7162;SDS011;3623;47.098;15.446;2022-10-16T05:54:08;38.95;;;29.00;;
7162;SDS011;3623;47.098;15.446;2022-10-16T05:56:36;40.10;;;30.35;;
7162;SDS011;3623;47.098;15.446;2022-10-16T05:59:03;34.63;;;27.00;;
7162;SDS011;3623;47.098;15.446;2022-10-16T06:01:30;42.83;;;28.45;;
7162;SDS011;3623;47.098;15.446;2022-10-16T06:03:58;39.78;;;26.75;;
7162;SDS011;3623;47.098;15.446;2022-10-16T06:06:26;37.47;;;25.60;;
7162;SDS011;3623;47.098;15.446;2022-10-16T06:08:54;45.78;;;28.40;;
7162;SDS011;3623;47.098;15.446;2022-10-16T06:11:24;36.38;;;25.20;;
7162;SDS011;3623;47.098;15.446;2022-10-16T06:13:53;44.00;;;29.33;;
7162;SDS011;3623;47.098;15.446;2022-10-16T06:16:22;40.53;;;29.75;;
7162;SDS011;3623;47.098;15.446;2022-10-16T06:18:50;44.80;;;31.30;;
7162;SDS011;3623;47.098;15.446;2022-10-16T06:21:18;40.13;;;31.85;;
7162;SDS011;3623;47.098;15.446;2022-10-16T06:23:49;48.03;;;33.97;;
7162;SDS011;3623;47.098;15.446;2022-10-16T06:26:17;44.20;;;29.67;;
7162;SDS011;3623;47.098;15.446;2022-10-16T06:28:47;34.90;;;28.17;;
7162;SDS011;3623;47.098;15.446;2022-10-16T06:31:15;45.05;;;29.00;;
7162;SDS011;3623;47.098;15.446;2022-10-16T06:33:43;43.35;;;30.95;;
7162;SDS011;3623;47.098;15.446;2022-10-16T06:36:12;37.55;;;29.20;;
7162;SDS011;3623;47.098;15.446;2022-10-16T06:38:41;42.53;;;29.65;;
7162;SDS011;3623;47.098;15.446;2022-10-16T06:41:10;38.72;;;27.80;;
7162;SDS011;3623;47.098;15.446;2022-10-16T06:43:39;44.45;;;29.80;;
7162;SDS011;3623;47.098;15.446;2022-10-16T06:46:09;47.97;;;28.63;;
7162;SDS011;3623;47.098;15.446;2022-10-16T06:48:37;46.33;;;28.35;;
7162;SDS011;3623;47.098;15.446;2022-10-16T06:51:05;43.55;;;29.25;;
7162;SDS011;3623;47.098;15.446;2022-10-16T06:53:35;41.65;;;29.15;;
7162;SDS011;3623;47.098;15.446;2022-10-16T06:56:06;42.40;;;24.95;;
7162;SDS011;3623;47.098;15.446;2022-10-16T06:58:34;43.60;;;28.83;;
7162;SDS011;3623;47.098;15.446;2022-10-16T07:01:02;42.28;;;27.60;;
7162;SDS011;3623;47.098;15.446;2022-10-16T07:03:31;36.80;;;26.67;;
7162;SDS011;3623;47.098;15.446;2022-10-16T07:06:00;32.10;;;24.45;;
7162;SDS011;3623;47.098;15.446;2022-10-16T07:08:30;36.33;;;25.92;;
7162;SDS011;3623;47.098;15.446;2022-10-16T07:10:58;42.22;;;29.42;;
7162;SDS011;3623;47.098;15.446;2022-10-16T07:13:27;32.40;;;25.27;;
7162;SDS011;3623;47.098;15.446;2022-10-16T07:15:54;32.80;;;23.75;;
7162;SDS011;3623;47.098;15.446;2022-10-16T07:18:21;38.10;;;25.52;;
7162;SDS011;3623;47.098;15.446;2022-10-16T07:20:53;31.33;;;23.27;;
7162;SDS011;3623;47.098;15.446;2022-10-16T07:23:28;36.20;;;25.95;;
7162;SDS011;3623;47.098;15.446;2022-10-16T07:25:55;39.17;;;26.73;;
7162;SDS011;3623;47.098;15.446;2022-10-16T07:28:22;40.70;;;25.30;;
7162;SDS011;3623;47.098;15.446;2022-10-16T07:30:50;35.37;;;24.27;;
7162;SDS011;3623;47.098;15.446;2022-10-16T07:33:17;33.22;;;25.90;;
7162;SDS011;3623;47.098;15.446;2022-10-16T07:35:48;29.45;;;24.95;;
7162;SDS011;3623;47.098;15.446;2022-10-16T07:38:18;33.10;;;24.03;;
7162;SDS011;3623;47.098;15.446;2022-10-16T07:40:46;27.00;;;22.60;;
7162;SDS011;3623;47.098;15.446;2022-10-16T07:43:14;28.60;;;22.63;;
7162;SDS011;3623;47.098;15.446;2022-10-16T07:45:47;31.40;;;23.47;;
7162;SDS011;3623;47.098;15.446;2022-10-16T07:48:15;32.43;;;20.57;;
7162;SDS011;3623;47.098;15.446;2022-10-16T07:50:43;26.77;;;20.27;;
7162;SDS011;3623;47.098;15.446;2022-10-16T07:53:11;28.07;;;22.03;;
7162;SDS011;3623;47.098;15.446;2022-10-16T07:55:39;25.03;;;19.57;;
7162;SDS011;3623;47.098;15.446;2022-10-16T07:58:07;26.70;;;20.97;;
7162;SDS011;3623;47.098;15.446;2022-10-16T08:00:35;28.00;;;21.57;;
7162;SDS011;3623;47.098;15.446;2022-10-16T08:03:02;27.60;;;20.27;;
7162;SDS011;3623;47.098;15.446;2022-10-16T08:05:31;25.87;;;19.80;;
7162;SDS011;3623;47.098;15.446;2022-10-16T08:07:59;26.43;;;19.77;;
7162;SDS011;3623;47.098;15.446;2022-10-16T08:10:27;27.40;;;20.10;;
7162;SDS011;3623;47.098;15.446;2022-10-16T08:12:58;28.30;;;20.30;;
7162;SDS011;3623;47.098;15.446;2022-10-16T08:15:25;28.50;;;20.10;;
7162;SDS011;3623;47.098;15.446;2022-10-16T08:17:59;23.70;;;19.27;;
7162;SDS011;3623;47.098;15.446;2022-10-16T08:20:27;25.47;;;19.80;;
7162;SDS011;3623;47.098;15.446;2022-10-16T08:22:57;25.20;;;19.23;;
7162;SDS011;3623;47.098;15.446;2022-10-16T08:25:25;25.27;;;20.27;;
7162;SDS011;3623;47.098;15.446;2022-10-16T08:27:53;21.13;;;18.10;;
7162;SDS011;3623;47.098;15.446;2022-10-16T08:30:23;29.70;;;18.50;;
7162;SDS011;3623;47.098;15.446;2022-10-16T08:32:50;22.63;;;18.83;;
7162;SDS011;3623;47.098;15.446;2022-10-16T08:35:19;22.73;;;20.20;;
7162;SDS011;3623;47.098;15.446;2022-10-16T08:37:46;24.60;;;18.13;;
7162;SDS011;3623;47.098;15.446;2022-10-16T08:40:16;23.90;;;17.47;;
7162;SDS011;3623;47.098;15.446;2022-10-16T08:42:56;21.63;;;16.83;;
7162;SDS011;3623;47.098;15.446;2022-10-16T08:45:43;19.13;;;17.13;;
7162;SDS011;3623;47.098;15.446;2022-10-16T08:48:20;22.47;;;18.20;;
7162;SDS011;3623;47.098;15.446;2022-10-16T08:50:51;19.73;;;17.73;;
7162;SDS011;3623;47.098;15.446;2022-10-16T08:53:20;20.33;;;17.47;;
7162;SDS011;3623;47.098;15.446;2022-10-16T08:55:52;19.87;;;17.23;;
7162;SDS011;3623;47.098;15.446;2022-10-16T08:58:21;20.50;;;18.33;;
7162;SDS011;3623;47.098;15.446;2022-10-16T09:00:52;18.37;;;16.40;;
7162;SDS011;3623;47.098;15.446;2022-10-16T09:03:23;28.07;;;25.17;;
7162;SDS011;3623;47.098;15.446;2022-10-16T09:09:03;27.30;;;23.73;;
7162;SDS011;3623;47.098;15.446;2022-10-16T09:11:41;29.33;;;26.40;;
7162;SDS011;3623;47.098;15.446;2022-10-16T09:14:31;27.70;;;24.80;;
7162;SDS011;3623;47.098;15.446;2022-10-16T09:17:11;28.83;;;25.67;;
7162;SDS011;3623;47.098;15.446;2022-10-16T09:19:49;29.77;;;26.00;;
7162;SDS011;3623;47.098;15.446;2022-10-16T09:22:21;29.60;;;26.43;;
7162;SDS011;3623;47.098;15.446;2022-10-16T09:24:53;30.07;;;26.20;;
7162;SDS011;3623;47.098;15.446;2022-10-16T09:27:21;32.43;;;29.07;;
7162;SDS011;3623;47.098;15.446;2022-10-16T09:29:49;33.87;;;30.07;;
7162;SDS011;3623;47.098;15.446;2022-10-16T09:32:18;27.03;;;23.37;;
7162;SDS011;3623;47.098;15.446;2022-10-16T09:34:47;30.13;;;25.87;;
7162;SDS011;3623;47.098;15.446;2022-10-16T09:37:17;29.13;;;26.17;;
7162;SDS011;3623;47.098;15.446;2022-10-16T09:39:45;27.67;;;24.80;;
7162;SDS011;3623;47.098;15.446;2022-10-16T09:42:14;27.77;;;24.97;;
7162;SDS011;3623;47.098;15.446;2022-10-16T09:44:42;28.93;;;24.93;;
7162;SDS011;3623;47.098;15.446;2022-10-16T09:47:15;27.67;;;24.70;;
7162;SDS011;3623;47.098;15.446;2022-10-16T09:49:52;28.20;;;24.60;;
7162;SDS011;3623;47.098;15.446;2022-10-16T09:52:23;28.17;;;25.10;;
7162;SDS011;3623;47.098;15.446;2022-10-16T09:55:09;26.83;;;24.03;;
7162;SDS011;3623;47.098;15.446;2022-10-16T09:57:48;25.80;;;23.07;;
7162;SDS011;3623;47.098;15.446;2022-10-16T10:00:22;28.40;;;24.00;;
7162;SDS011;3623;47.098;15.446;2022-10-16T10:02:54;31.70;;;25.90;;
7162;SDS011;3623;47.098;15.446;2022-10-16T10:05:25;27.60;;;24.23;;
7162;SDS011;3623;47.098;15.446;2022-10-16T10:07:54;26.90;;;21.30;;
7162;SDS011;3623;47.098;15.446;2022-10-16T10:10:24;25.90;;;22.63;;
7162;SDS011;3623;47.098;15.446;2022-10-16T10:13:03;27.80;;;25.10;;
7162;SDS011;3623;47.098;15.446;2022-10-16T10:15:43;25.83;;;23.43;;
7162;SDS011;3623;47.098;15.446;2022-10-16T10:18:18;23.70;;;21.30;;
7162;SDS011;3623;47.098;15.446;2022-10-16T10:21:03;23.77;;;21.30;;
7162;SDS011;3623;47.098;15.446;2022-10-16T10:23:40;23.07;;;20.80;;
7162;SDS011;3623;47.098;15.446;2022-10-16T10:26:10;21.30;;;19.30;;
7162;SDS011;3623;47.098;15.446;2022-10-16T10:28:58;19.73;;;17.67;;
7162;SDS011;3623;47.098;15.446;2022-10-16T10:31:34;21.70;;;18.63;;
7162;SDS011;3623;47.098;15.446;2022-10-16T10:34:30;21.20;;;19.10;;
7162;SDS011;3623;47.098;15.446;2022-10-16T10:37:23;23.03;;;20.80;;
7162;SDS011;3623;47.098;15.446;2022-10-16T10:40:15;26.77;;;18.30;;
7162;SDS011;3623;47.098;15.446;2022-10-16T10:42:53;20.47;;;18.37;;
7162;SDS011;3623;47.098;15.446;2022-10-16T10:45:26;21.10;;;19.10;;
7162;SDS011;3623;47.098;15.446;2022-10-16T10:48:54;20.17;;;18.27;;
7162;SDS011;3623;47.098;15.446;2022-10-16T10:51:49;20.73;;;18.63;;
7162;SDS011;3623;47.098;15.446;2022-10-16T10:54:45;20.10;;;18.00;;
7162;SDS011;3623;47.098;15.446;2022-10-16T10:57:22;24.60;;;17.33;;
7162;SDS011;3623;47.098;15.446;2022-10-16T11:00:12;19.30;;;17.40;;
7162;SDS011;3623;47.098;15.446;2022-10-16T11:02:57;19.30;;;17.10;;
7162;SDS011;3623;47.098;15.446;2022-10-16T11:05:41;19.87;;;16.47;;
7162;SDS011;3623;47.098;15.446;2022-10-16T11:08:15;20.23;;;18.30;;
7162;SDS011;3623;47.098;15.446;2022-10-16T11:10:57;20.30;;;18.40;;
7162;SDS011;3623;47.098;15.446;2022-10-16T11:13:30;18.67;;;16.83;;
7162;SDS011;3623;47.098;15.446;2022-10-16T11:16:05;17.50;;;16.00;;
7162;SDS011;3623;47.098;15.446;2022-10-16T11:18:42;18.63;;;16.93;;
7162;SDS011;3623;47.098;15.446;2022-10-16T11:21:23;17.93;;;15.90;;
7162;SDS011;3623;47.098;15.446;2022-10-16T11:24:06;19.97;;;17.77;;
7162;SDS011;3623;47.098;15.446;2022-10-16T11:26:44;19.20;;;17.60;;
7162;SDS011;3623;47.098;15.446;2022-10-16T11:29:25;19.27;;;17.33;;
7162;SDS011;3623;47.098;15.446;2022-10-16T11:31:59;19.07;;;16.83;;
7162;SDS011;3623;47.098;15.446;2022-10-16T11:34:35;20.33;;;18.40;;
7162;SDS011;3623;47.098;15.446;2022-10-16T11:37:11;18.67;;;17.07;;
7162;SDS011;3623;47.098;15.446;2022-10-16T11:39:57;19.37;;;17.40;;
7162;SDS011;3623;47.098;15.446;2022-10-16T11:42:32;18.20;;;16.73;;
7162;SDS011;3623;47.098;15.446;2022-10-16T11:45:07;18.67;;;16.87;;
7162;SDS011;3623;47.098;15.446;2022-10-16T11:47:54;18.27;;;16.43;;
7162;SDS011;3623;47.098;15.446;2022-10-16T11:50:29;17.67;;;15.97;;
7162;SDS011;3623;47.098;15.446;2022-10-16T11:53:08;19.57;;;17.53;;
7162;SDS011;3623;47.098;15.446;2022-10-16T11:55:45;18.73;;;16.83;;
7162;SDS011;3623;47.098;15.446;2022-10-16T12:01:37;17.87;;;16.30;;
7162;SDS011;3623;47.098;15.446;2022-10-16T12:04:16;17.00;;;15.30;;
7162;SDS011;3623;47.098;15.446;2022-10-16T12:06:53;17.53;;;15.83;;
7162;SDS011;3623;47.098;15.446;2022-10-16T12:09:26;18.27;;;16.27;;
7162;SDS011;3623;47.098;15.446;2022-10-16T12:11:56;16.37;;;14.90;;
7162;SDS011;3623;47.098;15.446;2022-10-16T12:14:34;14.70;;;13.50;;
7162;SDS011;3623;47.098;15.446;2022-10-16T12:17:04;16.30;;;14.90;;
7162;SDS011;3623;47.098;15.446;2022-10-16T12:22:49;16.67;;;15.17;;
7162;SDS011;3623;47.098;15.446;2022-10-16T12:25:20;16.70;;;15.27;;
7162;SDS011;3623;47.098;15.446;2022-10-16T12:27:55;15.53;;;14.03;;
7162;SDS011;3623;47.098;15.446;2022-10-16T12:30:27;14.43;;;13.23;;
7162;SDS011;3623;47.098;15.446;2022-10-16T12:32:57;15.27;;;13.87;;
7162;SDS011;3623;47.098;15.446;2022-10-16T12:35:28;17.20;;;15.60;;
7162;SDS011;3623;47.098;15.446;2022-10-16T12:38:06;16.10;;;13.83;;
7162;SDS011;3623;47.098;15.446;2022-10-16T12:40:55;17.23;;;15.43;;
7162;SDS011;3623;47.098;15.446;2022-10-16T12:43:39;15.63;;;14.23;;
7162;SDS011;3623;47.098;15.446;2022-10-16T12:46:59;15.53;;;14.03;;
7162;SDS011;3623;47.098;15.446;2022-10-16T12:49:22;17.00;;;12.60;;
7162;SDS011;3623;47.098;15.446;2022-10-16T12:51:57;15.40;;;13.37;;
7162;SDS011;3623;47.098;15.446;2022-10-16T12:54:29;15.60;;;13.47;;
7162;SDS011;3623;47.098;15.446;2022-10-16T12:57:04;15.50;;;14.03;;
7162;SDS011;3623;47.098;15.446;2022-10-16T12:59:46;16.40;;;14.97;;
7162;SDS011;3623;47.098;15.446;2022-10-16T13:02:27;14.63;;;13.23;;
7162;SDS011;3623;47.098;15.446;2022-10-16T13:05:24;14.20;;;12.90;;
7162;SDS011;3623;47.098;15.446;2022-10-16T13:08:15;17.30;;;14.33;;
7162;SDS011;3623;47.098;15.446;2022-10-16T13:10:56;15.70;;;14.10;;
7162;SDS011;3623;47.098;15.446;2022-10-16T13:13:41;15.97;;;14.37;;
7162;SDS011;3623;47.098;15.446;2022-10-16T13:16:40;15.50;;;14.00;;
7162;SDS011;3623;47.098;15.446;2022-10-16T13:19:20;18.70;;;14.60;;
7162;SDS011;3623;47.098;15.446;2022-10-16T13:21:56;16.23;;;14.93;;
7162;SDS011;3623;47.098;15.446;2022-10-16T13:24:45;14.40;;;13.17;;
7162;SDS011;3623;47.098;15.446;2022-10-16T13:27:23;16.50;;;15.00;;
7162;SDS011;3623;47.098;15.446;2022-10-16T13:30:01;16.90;;;15.37;;
7162;SDS011;3623;47.098;15.446;2022-10-16T13:32:38;15.57;;;14.20;;
7162;SDS011;3623;47.098;15.446;2022-10-16T13:35:18;16.07;;;14.57;;
7162;SDS011;3623;47.098;15.446;2022-10-16T13:38:05;18.87;;;16.87;;
7162;SDS011;3623;47.098;15.446;2022-10-16T13:40:47;17.77;;;14.43;;
7162;SDS011;3623;47.098;15.446;2022-10-16T13:43:24;16.67;;;15.07;;
7162;SDS011;3623;47.098;15.446;2022-10-16T13:46:20;17.53;;;15.93;;
7162;SDS011;3623;47.098;15.446;2022-10-16T13:49:01;16.30;;;14.70;;
7162;SDS011;3623;47.098;15.446;2022-10-16T13:51:32;16.50;;;14.73;;
7162;SDS011;3623;47.098;15.446;2022-10-16T13:53:59;17.03;;;15.57;;
7162;SDS011;3623;47.098;15.446;2022-10-16T13:56:27;17.83;;;16.20;;
7162;SDS011;3623;47.098;15.446;2022-10-16T13:58:59;19.50;;;16.97;;
7162;SDS011;3623;47.098;15.446;2022-10-16T14:01:28;30.20;;;16.40;;
7162;SDS011;3623;47.098;15.446;2022-10-16T14:04:07;17.10;;;15.40;;
7162;SDS011;3623;47.098;15.446;2022-10-16T14:07:00;17.90;;;16.17;;
7162;SDS011;3623;47.098;15.446;2022-10-16T14:09:39;22.20;;;16.83;;
7162;SDS011;3623;47.098;15.446;2022-10-16T14:12:10;16.73;;;15.13;;
7162;SDS011;3623;47.098;15.446;2022-10-16T14:14:40;18.70;;;16.70;;
7162;SDS011;3623;47.098;15.446;2022-10-16T14:17:14;18.80;;;16.20;;
7162;SDS011;3623;47.098;15.446;2022-10-16T14:20:12;16.27;;;14.67;;
7162;SDS011;3623;47.098;15.446;2022-10-16T14:22:58;20.17;;;16.20;;
7162;SDS011;3623;47.098;15.446;2022-10-16T14:26:05;18.60;;;16.70;;
7162;SDS011;3623;47.098;15.446;2022-10-16T14:29:03;21.20;;;15.90;;
7162;SDS011;3623;47.098;15.446;2022-10-16T14:32:03;18.07;;;16.37;;
7162;SDS011;3623;47.098;15.446;2022-10-16T14:34:35;19.77;;;17.67;;
7162;SDS011;3623;47.098;15.446;2022-10-16T14:37:22;18.87;;;15.03;;
7162;SDS011;3623;47.098;15.446;2022-10-16T14:40:01;17.70;;;15.93;;
7162;SDS011;3623;47.098;15.446;2022-10-16T14:42:45;24.17;;;19.90;;
7162;SDS011;3623;47.098;15.446;2022-10-16T14:45:30;18.90;;;16.20;;
7162;SDS011;3623;47.098;15.446;2022-10-16T14:48:18;17.60;;;15.90;;
7162;SDS011;3623;47.098;15.446;2022-10-16T14:50:48;20.83;;;18.50;;
7162;SDS011;3623;47.098;15.446;2022-10-16T14:56:16;22.00;;;18.17;;
7162;SDS011;3623;47.098;15.446;2022-10-16T14:59:21;18.33;;;16.60;;
7162;SDS011;3623;47.098;15.446;2022-10-16T15:01:56;16.70;;;14.80;;
7162;SDS011;3623;47.098;15.446;2022-10-16T15:04:38;19.77;;;17.63;;
7162;SDS011;3623;47.098;15.446;2022-10-16T15:07:21;20.13;;;17.97;;
7162;SDS011;3623;47.098;15.446;2022-10-16T15:09:57;19.17;;;17.17;;
7162;SDS011;3623;47.098;15.446;2022-10-16T15:12:27;19.60;;;17.60;;
7162;SDS011;3623;47.098;15.446;2022-10-16T15:15:00;19.13;;;17.13;;
7162;SDS011;3623;47.098;15.446;2022-10-16T15:17:41;21.37;;;17.57;;
7162;SDS011;3623;47.098;15.446;2022-10-16T15:20:14;20.33;;;17.33;;